Time;durP1;ratioP1;P1;durP2;ratioP2;P2;SDS_P1;SDS_P2;PMS_P1;PMS_P2;Temp;Humidity;BMP_temperature;BMP_pressure;BME280_temperature;BME280_humidity;BME280_pressure;Samples;Min_cycle;Max_cycle;Signal;HPM_P1;HPM_P2
2024/02/12 00:00:11;;;;;;;5.63;2.65;;;8.80;99.90;;;;;;5045235;23;20154;-92
2024/02/12 00:02:18;;;;;;;8.18;3.05;;;8.90;99.90;;;;;;5069276;23;20233;-92
2024/02/12 00:04:20;;;;;;;7.97;3.03;;;8.70;99.90;;;;;;5044552;23;20158;-94
2024/02/12 00:06:21;;;;;;;5.97;2.53;;;8.70;99.90;;;;;;5069771;23;20236;-92
2024/02/12 00:08:22;;;;;;;6.47;2.92;;;8.70;99.90;;;;;;5044834;23;20180;-92
2024/02/12 00:10:23;;;;;;;8.13;2.78;;;8.70;99.90;;;;;;5069027;23;20300;-92
2024/02/12 00:12:24;;;;;;;6.95;2.95;;;8.80;99.90;;;;;;5069171;23;20158;-94
2024/02/12 00:14:25;;;;;;;8.93;2.95;;;8.90;99.90;;;;;;5069235;23;20157;-95
2024/02/12 00:16:27;;;;;;;7.93;3.20;;;8.90;99.90;;;;;;5044530;23;20237;-93
2024/02/12 00:18:28;;;;;;;8.15;3.00;;;8.80;99.90;;;;;;5044619;23;20229;-92
2024/02/12 00:20:30;;;;;;;5.85;2.90;;;8.70;99.90;;;;;;5069233;23;20657;-92
2024/02/12 00:22:34;;;;;;;6.38;3.17;;;8.60;99.90;;;;;;5069354;23;20153;-92
2024/02/12 00:24:34;;;;;;;6.07;3.03;;;8.60;99.90;;;;;;5045036;23;20158;-92
2024/02/12 00:26:40;;;;;;;12.60;4.20;;;8.80;99.90;;;;;;5069490;23;20176;-93
2024/02/12 00:28:42;;;;;;;6.43;3.58;;;8.70;99.90;;;;;;5044770;23;20182;-93
2024/02/12 00:30:43;;;;;;;9.63;3.35;;;8.80;99.90;;;;;;5069011;23;20221;-92
2024/02/12 00:32:44;;;;;;;10.00;4.53;;;8.90;99.90;;;;;;5046187;23;20638;-92
2024/02/12 00:34:45;;;;;;;7.18;2.83;;;8.90;99.90;;;;;;5069555;23;20605;-93
2024/02/12 00:36:49;;;;;;;6.07;2.85;;;8.90;99.90;;;;;;5068779;23;20240;-93
2024/02/12 00:38:50;;;;;;;10.80;4.00;;;8.90;99.90;;;;;;5045204;23;20178;-94
2024/02/12 00:40:51;;;;;;;7.13;3.70;;;8.90;99.90;;;;;;5045037;23;20245;-92
2024/02/12 00:42:54;;;;;;;12.52;4.53;;;8.80;99.90;;;;;;5069532;23;20613;-92
2024/02/12 00:44:57;;;;;;;12.18;4.97;;;8.80;99.90;;;;;;5093187;23;20568;-93
2024/02/12 00:47:03;;;;;;;7.00;3.08;;;8.70;99.90;;;;;;5069362;23;20189;-93
2024/02/12 00:49:04;;;;;;;10.43;3.42;;;8.80;99.90;;;;;;5069645;23;20150;-94
2024/02/12 00:51:12;;;;;;;6.07;3.47;;;8.80;99.90;;;;;;5069139;23;20549;-92
2024/02/12 00:53:13;;;;;;;8.77;3.55;;;8.60;99.90;;;;;;5046354;23;20153;-92
2024/02/12 00:55:15;;;;;;;11.70;4.32;;;8.80;99.90;;;;;;5068765;23;20200;-94
2024/02/12 00:57:16;;;;;;;8.20;3.95;;;8.70;99.90;;;;;;5068894;23;20178;-93
2024/02/12 00:59:17;;;;;;;11.25;3.63;;;8.80;99.90;;;;;;5069055;23;20173;-92
2024/02/12 01:01:18;;;;;;;10.98;3.97;;;8.90;99.90;;;;;;5068805;23;20627;-91
2024/02/12 01:03:25;;;;;;;7.70;3.70;;;9.00;99.90;;;;;;5068618;23;20153;-94
2024/02/12 01:05:26;;;;;;;14.30;3.25;;;9.00;99.90;;;;;;5044463;23;20220;-92
2024/02/12 01:07:27;;;;;;;7.00;3.70;;;8.90;99.90;;;;;;5044675;23;20211;-92
2024/02/12 01:09:29;;;;;;;7.57;3.20;;;8.80;99.90;;;;;;5069819;23;20490;-91
2024/02/12 01:11:34;;;;;;;11.98;4.43;;;8.70;99.90;;;;;;5069946;23;20204;-92
2024/02/12 01:13:35;;;;;;;12.90;3.97;;;8.70;99.90;;;;;;5045219;23;20154;-93
2024/02/12 01:15:36;;;;;;;6.00;2.85;;;8.80;99.90;;;;;;5068827;23;20169;-92
2024/02/12 01:17:37;;;;;;;8.63;3.40;;;8.70;99.90;;;;;;5044999;23;20226;-92
2024/02/12 01:19:38;;;;;;;8.27;3.85;;;8.80;99.90;;;;;;5044847;23;20244;-92
2024/02/12 01:21:45;;;;;;;8.95;3.55;;;8.90;99.90;;;;;;5044760;23;20199;-93
2024/02/12 01:23:47;;;;;;;10.57;3.92;;;9.00;99.90;;;;;;5044655;23;20206;-93
2024/02/12 01:25:51;;;;;;;7.57;4.22;;;8.90;99.90;;;;;;5044411;23;20613;-92
2024/02/12 01:27:53;;;;;;;9.95;3.60;;;8.90;99.90;;;;;;5044346;23;20675;-93
2024/02/12 01:29:54;;;;;;;12.73;4.20;;;9.00;99.90;;;;;;5044988;23;20621;-92
2024/02/12 01:31:55;;;;;;;11.02;4.30;;;9.10;99.90;;;;;;5045987;23;20205;-93
2024/02/12 01:33:59;;;;;;;10.15;3.22;;;9.10;99.90;;;;;;5046528;23;20165;-93
2024/02/12 01:36:00;;;;;;;7.45;3.20;;;9.10;99.90;;;;;;5070517;23;20158;-92
2024/02/12 01:38:01;;;;;;;10.15;4.03;;;9.10;99.90;;;;;;5046262;23;20261;-92
2024/02/12 01:40:03;;;;;;;9.95;4.72;;;9.10;99.90;;;;;;5070832;23;20154;-92
2024/02/12 01:42:12;;;;;;;8.85;4.03;;;9.20;99.90;;;;;;5071454;23;20157;-94
2024/02/12 01:44:13;;;;;;;7.00;3.17;;;9.30;99.90;;;;;;5070305;23;20482;-93
2024/02/12 01:46:14;;;;;;;10.32;3.72;;;9.20;99.90;;;;;;5047322;23;20205;-93
2024/02/12 01:48:18;;;;;;;7.97;3.55;;;9.20;99.90;;;;;;5070164;23;20178;-93
2024/02/12 01:50:19;;;;;;;8.32;3.83;;;9.10;99.90;;;;;;5070069;23;20220;-92
2024/02/12 01:52:20;;;;;;;6.55;3.15;;;9.10;99.90;;;;;;5046065;23;20476;-94
2024/02/12 01:54:21;;;;;;;7.65;3.58;;;9.10;99.90;;;;;;5071630;23;20165;-91
2024/02/12 01:56:22;;;;;;;8.45;2.70;;;9.10;99.90;;;;;;5070463;23;20161;-93
2024/02/12 01:58:23;;;;;;;5.20;2.95;;;9.30;99.90;;;;;;5070152;23;20185;-92
2024/02/12 02:00:27;;;;;;;6.93;3.58;;;9.30;99.90;;;;;;5046105;23;20178;-94
2024/02/12 02:02:43;;;;;;;11.50;3.33;;;9.20;99.90;;;;;;5070078;23;20189;-94
2024/02/12 02:04:44;;;;;;;14.13;4.13;;;9.10;99.90;;;;;;5046086;23;20154;-93
2024/02/12 02:06:55;;;;;;;8.35;3.97;;;9.00;99.90;;;;;;5046050;23;20210;-92
2024/02/12 02:08:56;;;;;;;5.95;2.92;;;9.10;99.90;;;;;;5045791;23;20156;-94
2024/02/12 02:11:01;;;;;;;6.45;3.35;;;9.10;99.90;;;;;;5070533;23;20220;-93
2024/02/12 02:13:03;;;;;;;8.85;3.47;;;9.10;99.90;;;;;;5070109;23;20145;-93
2024/02/12 02:15:05;;;;;;;10.00;3.72;;;8.90;99.90;;;;;;5069923;23;20166;-92
2024/02/12 02:17:07;;;;;;;10.55;3.55;;;8.70;99.90;;;;;;5069788;23;20240;-94
2024/02/12 02:19:10;;;;;;;13.60;3.80;;;8.80;99.90;;;;;;5046134;23;20154;-93
2024/02/12 02:21:14;;;;;;;9.25;3.42;;;8.90;99.90;;;;;;5070187;23;20150;-93
2024/02/12 02:23:15;;;;;;;9.23;4.13;;;9.00;99.90;;;;;;5070358;23;20162;-94
2024/02/12 02:25:16;;;;;;;6.85;3.20;;;9.00;99.90;;;;;;5047677;23;20154;-93
2024/02/12 02:27:17;;;;;;;8.55;3.25;;;9.10;99.90;;;;;;5045652;23;20233;-93
2024/02/12 02:29:18;;;;;;;12.95;3.88;;;9.20;99.90;;;;;;5045671;23;20225;-93
2024/02/12 02:31:20;;;;;;;9.27;3.70;;;9.20;99.90;;;;;;5070781;23;20193;-92
2024/02/12 02:33:26;;;;;;;7.15;3.22;;;9.20;99.90;;;;;;5045944;23;20177;-93
2024/02/12 02:35:27;;;;;;;14.15;4.05;;;9.10;99.90;;;;;;5045491;23;20542;-92
2024/02/12 02:37:28;;;;;;;10.73;4.00;;;8.90;99.90;;;;;;5069805;23;20173;-91
2024/02/12 02:39:29;;;;;;;8.05;3.28;;;8.90;99.90;;;;;;5045715;23;20529;-93
2024/02/12 02:41:31;;;;;;;14.60;3.92;;;8.90;99.90;;;;;;5046989;23;20154;-93
2024/02/12 02:43:32;;;;;;;7.40;3.15;;;9.00;99.90;;;;;;5045753;23;20221;-93
2024/02/12 02:45:34;;;;;;;7.43;3.28;;;9.00;99.90;;;;;;5047293;23;20169;-93
2024/02/12 02:47:37;;;;;;;13.63;3.03;;;9.00;99.90;;;;;;5045885;23;20245;-92
2024/02/12 02:49:38;;;;;;;9.35;3.75;;;8.90;99.90;;;;;;5045410;23;20214;-93
2024/02/12 02:51:39;;;;;;;6.82;3.25;;;8.80;99.90;;;;;;5045622;23;20166;-93
2024/02/12 02:53:40;;;;;;;9.43;3.53;;;8.60;99.90;;;;;;5046098;23;20676;-91
2024/02/12 02:55:43;;;;;;;6.13;3.05;;;8.70;99.90;;;;;;5045623;23;20202;-93
2024/02/12 02:57:44;;;;;;;14.90;3.65;;;8.70;99.90;;;;;;5045573;23;20174;-92
2024/02/12 02:59:46;;;;;;;9.02;3.15;;;8.80;99.90;;;;;;5046218;23;20246;-94
2024/02/12 03:01:47;;;;;;;7.60;2.90;;;8.90;99.90;;;;;;5046145;23;20158;-92
2024/02/12 03:03:50;;;;;;;9.38;2.20;;;8.90;99.90;;;;;;5045522;23;20155;-94
2024/02/12 03:05:51;;;;;;;6.60;2.97;;;9.10;99.90;;;;;;5046078;23;20150;-93
2024/02/12 03:07:52;;;;;;;5.75;2.83;;;9.10;99.90;;;;;;5069733;23;20184;-94
2024/02/12 03:09:53;;;;;;;6.75;3.15;;;9.10;99.90;;;;;;5045613;23;20229;-93
2024/02/12 03:11:54;;;;;;;5.50;2.67;;;9.10;99.90;;;;;;5069814;23;20161;-92
2024/02/12 03:13:55;;;;;;;4.93;2.60;;;8.90;99.90;;;;;;5045259;23;20150;-94
2024/02/12 03:15:57;;;;;;;11.02;2.33;;;8.90;99.90;;;;;;5069726;23;20192;-92
2024/02/12 03:18:09;;;;;;;;;;;;;;;;;;;;;
2024/02/12 03:20:16;;;;;;;5.55;2.17;;;8.90;99.90;;;;;;5069477;23;20158;-92
2024/02/12 03:22:21;;;;;;;6.07;2.08;;;9.00;99.90;;;;;;5045404;23;20536;-93
2024/02/12 03:24:26;;;;;;;4.88;2.30;;;9.00;99.90;;;;;;5045708;23;20162;-93
2024/02/12 03:26:27;;;;;;;6.13;2.05;;;9.10;99.90;;;;;;5069536;23;20162;-93
2024/02/12 03:28:28;;;;;;;5.82;2.42;;;9.10;99.90;;;;;;5044910;23;20237;-92
2024/02/12 03:30:29;;;;;;;5.30;2.15;;;9.20;99.90;;;;;;5044687;23;20193;-93
2024/02/12 03:32:30;;;;;;;4.78;2.03;;;9.10;99.90;;;;;;5044976;23;20201;-92
2024/02/12 03:34:31;;;;;;;7.78;2.47;;;9.10;99.90;;;;;;5045759;23;20633;-92
2024/02/12 03:36:32;;;;;;;6.55;2.22;;;9.10;99.90;;;;;;5069541;23;20185;-92
2024/02/12 03:38:33;;;;;;;5.95;1.83;;;9.10;99.90;;;;;;5045016;23;20243;-93
2024/02/12 03:40:34;;;;;;;5.03;1.90;;;8.90;99.90;;;;;;5069488;23;20158;-94
2024/02/12 03:42:36;;;;;;;6.15;2.25;;;8.80;99.90;;;;;;5069351;23;20188;-93
2024/02/12 03:44:40;;;;;;;6.28;2.08;;;8.70;99.90;;;;;;5045170;23;20185;-94
2024/02/12 03:46:45;;;;;;;8.93;2.13;;;8.80;99.90;;;;;;5069460;23;20188;-92
2024/02/12 04:00:25;;;;;;;5.82;2.35;;;8.50;99.90;;;;;;5093610;23;20160;-92
2024/02/12 04:02:29;;;;;;;4.45;1.85;;;8.50;99.90;;;;;;5069365;23;20158;-93
2024/02/12 04:04:30;;;;;;;7.03;1.77;;;8.50;99.90;;;;;;5045176;23;20150;-93
2024/02/12 04:06:34;;;;;;;4.47;1.90;;;8.60;99.90;;;;;;5044738;23;20169;-93
2024/02/12 04:08:35;;;;;;;8.80;1.75;;;8.60;99.90;;;;;;5069063;23;20174;-94
2024/02/12 04:10:37;;;;;;;8.95;2.03;;;8.80;99.90;;;;;;5044521;23;20228;-94
2024/02/12 04:12:43;;;;;;;5.80;1.80;;;8.80;99.90;;;;;;5045848;23;20221;-93
2024/02/12 04:14:44;;;;;;;12.02;2.05;;;8.80;99.90;;;;;;5069239;23;20251;-93
2024/02/12 04:16:51;;;;;;;7.82;2.15;;;8.80;99.90;;;;;;5046726;23;20174;-92
2024/02/12 04:18:53;;;;;;;7.05;1.50;;;8.80;99.90;;;;;;5045252;23;20218;-93
2024/02/12 04:20:59;;;;;;;5.13;1.30;;;9.00;99.90;;;;;;5069272;23;20585;-93
2024/02/12 04:23:01;;;;;;;7.50;2.15;;;8.90;99.90;;;;;;5069296;23;20620;-93
2024/02/12 04:25:04;;;;;;;5.72;1.35;;;8.90;99.90;;;;;;5045139;23;20163;-92
2024/02/12 04:27:09;;;;;;;4.93;2.20;;;8.90;99.90;;;;;;5045363;23;20158;-92
2024/02/12 04:29:10;;;;;;;3.63;1.40;;;8.90;99.90;;;;;;5045320;23;20153;-93
2024/02/12 04:31:11;;;;;;;3.17;1.25;;;8.80;99.90;;;;;;5044990;23;20201;-93
2024/02/12 04:33:13;;;;;;;2.15;1.02;;;8.90;99.90;;;;;;5068896;23;20220;-93
2024/02/12 04:35:16;;;;;;;4.30;1.50;;;8.80;99.90;;;;;;5068738;23;20284;-93
2024/02/12 04:37:19;;;;;;;2.45;1.65;;;8.70;99.90;;;;;;5044819;23;20170;-94
2024/02/12 04:39:20;;;;;;;7.38;2.13;;;8.60;99.90;;;;;;5020919;23;20158;-91
2024/02/12 04:41:24;;;;;;;5.25;1.70;;;8.40;99.90;;;;;;5044508;23;20158;-93
2024/02/12 04:43:25;;;;;;;5.22;1.23;;;8.30;99.90;;;;;;5069050;23;20161;-92
2024/02/12 04:45:26;;;;;;;4.85;1.52;;;8.30;99.90;;;;;;5044842;23;20244;-93
2024/02/12 04:47:27;;;;;;;7.20;1.60;;;8.40;99.90;;;;;;5069312;23;20174;-93
2024/02/12 04:49:29;;;;;;;6.63;1.92;;;8.40;99.90;;;;;;5044665;23;20162;-92
2024/02/12 04:51:37;;;;;;;5.55;1.88;;;8.30;99.90;;;;;;5068801;23;20193;-92
2024/02/12 04:53:38;;;;;;;8.95;2.17;;;8.30;99.90;;;;;;5044397;23;20631;-93
2024/02/12 04:55:39;;;;;;;3.72;1.52;;;8.30;99.90;;;;;;5044501;23;20561;-93
2024/02/12 04:57:40;;;;;;;6.78;2.03;;;8.30;99.90;;;;;;5044664;23;20174;-93
2024/02/12 04:59:42;;;;;;;5.22;1.70;;;8.30;99.90;;;;;;5045062;23;20155;-92
2024/02/12 05:01:43;;;;;;;5.40;1.92;;;8.20;99.90;;;;;;5093268;23;20155;-93
2024/02/12 05:03:50;;;;;;;6.15;1.63;;;8.20;99.90;;;;;;5068993;23;20161;-93
2024/02/12 05:05:51;;;;;;;3.33;1.25;;;8.20;99.90;;;;;;5045865;23;20277;-92
2024/02/12 05:07:52;;;;;;;5.93;1.48;;;8.10;99.90;;;;;;5045728;23;20210;-93
2024/02/12 05:09:53;;;;;;;9.35;1.77;;;8.20;99.90;;;;;;5044734;23;20151;-93
2024/02/12 05:11:54;;;;;;;7.15;1.73;;;8.10;99.90;;;;;;5045262;23;20154;-92
2024/02/12 05:13:55;;;;;;;2.83;1.13;;;8.10;99.90;;;;;;5045129;23;20511;-92
2024/02/12 05:15:57;;;;;;;3.95;1.42;;;8.10;99.90;;;;;;5045293;23;20207;-92
2024/02/12 05:18:14;;;;;;;3.35;1.00;;;8.10;99.90;;;;;;5045835;23;20174;-94
2024/02/12 05:22:34;;;;;;;9.00;1.40;;;7.90;99.90;;;;;;5070544;23;20164;-92
2024/02/12 05:24:36;;;;;;;3.00;1.00;;;7.80;99.90;;;;;;5046329;23;20258;-93
2024/02/12 05:26:38;;;;;;;5.72;1.08;;;7.90;99.90;;;;;;5044520;23;20162;-94
2024/02/12 05:28:39;;;;;;;8.10;2.40;;;7.90;99.90;;;;;;5068581;23;20177;-93
2024/02/12 05:30:40;;;;;;;5.07;1.50;;;8.00;99.90;;;;;;5093944;23;20203;-92
2024/02/12 05:32:43;;;;;;;5.50;1.60;;;7.90;99.90;;;;;;5044762;23;20211;-93
2024/02/12 05:34:44;;;;;;;5.68;1.20;;;7.90;99.90;;;;;;5044446;23;20150;-94
2024/02/12 05:36:46;;;;;;;3.75;0.95;;;7.90;99.90;;;;;;5044290;23;20158;-91
2024/02/12 05:38:49;;;;;;;4.32;1.77;;;7.80;99.90;;;;;;5044504;23;20182;-94
2024/02/12 05:40:50;;;;;;;3.95;1.00;;;7.70;99.90;;;;;;5044365;23;20151;-92
2024/02/12 05:42:51;;;;;;;2.97;0.70;;;7.60;99.90;;;;;;5045354;23;20189;-93
2024/02/12 05:44:52;;;;;;;5.13;1.27;;;7.50;99.90;;;;;;5044667;23;20163;-92
2024/02/12 05:46:53;;;;;;;1.30;0.73;;;7.40;99.90;;;;;;5043978;23;20159;-94
2024/02/12 05:48:57;;;;;;;3.60;0.52;;;7.30;99.90;;;;;;5044312;23;20162;-93
2024/02/12 05:50:59;;;;;;;9.82;0.75;;;7.40;99.90;;;;;;5044938;23;20201;-93
2024/02/12 05:52:59;;;;;;;5.80;1.10;;;7.20;99.90;;;;;;5068942;23;20154;-94
2024/02/12 05:55:00;;;;;;;9.27;1.42;;;7.20;99.90;;;;;;5068387;23;20299;-92
2024/02/12 05:57:04;;;;;;;3.10;0.85;;;7.30;99.90;;;;;;5092779;23;20153;-93
2024/02/12 05:59:06;;;;;;;7.68;0.77;;;7.20;99.90;;;;;;5069741;23;20265;-92
2024/02/12 06:01:07;;;;;;;3.83;1.65;;;7.10;99.90;;;;;;5068394;23;20168;-93
2024/02/12 06:03:08;;;;;;;2.63;0.75;;;7.00;99.90;;;;;;5069944;23;20150;-92
2024/02/12 06:05:09;;;;;;;6.22;1.05;;;7.00;99.90;;;;;;5068473;23;20216;-93
2024/02/12 06:07:10;;;;;;;2.78;0.85;;;6.90;99.90;;;;;;5044333;23;20150;-94
2024/02/12 06:09:12;;;;;;;5.78;1.30;;;6.90;99.90;;;;;;5044811;23;20170;-93
2024/02/12 06:11:14;;;;;;;2.05;0.52;;;6.70;99.90;;;;;;5068990;23;20220;-94
2024/02/12 06:13:17;;;;;;;3.15;1.00;;;6.70;99.90;;;;;;5044659;23;20150;-93
2024/02/12 06:15:18;;;;;;;0.52;0.25;;;6.60;99.90;;;;;;5068778;23;20585;-93
2024/02/12 06:17:19;;;;;;;1.95;0.45;;;6.60;99.90;;;;;;5045109;23;20182;-94
2024/02/12 06:19:20;;;;;;;5.05;1.00;;;6.60;99.90;;;;;;5070961;23;20564;-93
2024/02/12 06:21:30;;;;;;;7.32;0.80;;;6.60;99.90;;;;;;5072743;23;20480;-94
2024/02/12 06:23:31;;;;;;;11.13;1.53;;;6.60;99.90;;;;;;5070329;23;20160;-94
2024/02/12 06:25:33;;;;;;;6.13;0.63;;;6.60;99.90;;;;;;5069901;23;20158;-92
2024/02/12 06:27:34;;;;;;;6.23;0.67;;;6.50;99.90;;;;;;5071662;23;20178;-94
2024/02/12 06:29:38;;;;;;;3.97;0.63;;;6.40;99.90;;;;;;5045606;23;20161;-93
2024/02/12 06:31:42;;;;;;;13.67;1.43;;;6.40;99.90;;;;;;5071265;23;20193;-92
2024/02/12 06:33:43;;;;;;;0.75;0.50;;;6.40;99.90;;;;;;5045829;23;20643;-93
2024/02/12 06:35:44;;;;;;;10.60;0.83;;;6.40;99.90;;;;;;5046298;23;20159;-93
2024/02/12 06:37:46;;;;;;;3.70;0.93;;;6.30;99.90;;;;;;5046245;23;20173;-92
2024/02/12 06:39:47;;;;;;;3.60;0.70;;;6.40;99.90;;;;;;5045796;23;20158;-93
2024/02/12 06:41:51;;;;;;;7.60;1.08;;;6.50;99.90;;;;;;5070930;23;20160;-93
2024/02/12 06:43:54;;;;;;;2.38;0.80;;;6.50;99.90;;;;;;5070881;23;20651;-94
2024/02/12 06:45:55;;;;;;;4.93;1.27;;;6.60;99.90;;;;;;5046297;23;20162;-92
2024/02/12 06:48:02;;;;;;;6.07;0.70;;;6.50;99.90;;;;;;5069686;23;20170;-92
2024/02/12 06:50:05;;;;;;;7.40;0.82;;;6.40;99.90;;;;;;5071195;23;20617;-94
2024/02/12 06:52:19;;;;;;;10.17;1.47;;;6.40;99.90;;;;;;5070243;23;20204;-93
2024/02/12 06:54:20;;;;;;;4.85;0.90;;;6.40;99.90;;;;;;5070029;23;20652;-95
2024/02/12 06:56:21;;;;;;;3.58;0.93;;;6.50;99.90;;;;;;5070320;23;20248;-94
2024/02/12 06:58:25;;;;;;;1.13;0.87;;;6.60;99.90;;;;;;5045565;23;20178;-94
2024/02/12 07:00:26;;;;;;;9.00;1.08;;;6.60;99.90;;;;;;5045845;23;20154;-93
2024/02/12 07:02:27;;;;;;;1.15;0.63;;;6.70;99.90;;;;;;5070451;23;20589;-94
2024/02/12 07:04:28;;;;;;;8.05;0.90;;;6.60;99.90;;;;;;5069487;23;20165;-94
2024/02/12 07:06:34;;;;;;;5.97;1.63;;;6.50;99.90;;;;;;5071489;23;20216;-94
2024/02/12 07:08:37;;;;;;;2.75;1.02;;;6.50;99.90;;;;;;5069890;23;20186;-93
2024/02/12 07:10:44;;;;;;;0.63;0.40;;;6.40;99.90;;;;;;5071886;23;20205;-94
2024/02/12 07:12:50;;;;;;;4.63;1.17;;;6.30;99.90;;;;;;5045187;23;20158;-94
2024/02/12 07:14:56;;;;;;;3.53;0.63;;;6.30;99.90;;;;;;5045787;23;20158;-93
2024/02/12 07:17:15;;;;;;;2.30;0.80;;;6.30;99.90;;;;;;5069856;23;20170;-93
2024/02/12 07:19:19;;;;;;;5.20;1.67;;;6.30;99.90;;;;;;5069678;23;20212;-93
2024/02/12 07:21:20;;;;;;;4.10;1.30;;;6.40;99.90;;;;;;5045681;23;20229;-93
2024/02/12 07:23:27;;;;;;;2.65;0.65;;;6.40;99.90;;;;;;5045105;23;20228;-93
2024/02/12 07:25:28;;;;;;;1.63;0.80;;;6.40;99.90;;;;;;5045216;23;20154;-94
2024/02/12 07:27:29;;;;;;;6.00;1.02;;;6.60;99.90;;;;;;5069985;23;20178;-93
2024/02/12 07:29:33;;;;;;;3.92;0.93;;;6.80;99.90;;;;;;5069742;23;20245;-93
2024/02/12 07:31:43;;;;;;;4.75;1.58;;;6.80;99.90;;;;;;5069631;23;20651;-94
2024/02/12 07:33:44;;;;;;;16.13;1.70;;;6.80;99.90;;;;;;5046544;23;20177;-93
2024/02/12 07:35:45;;;;;;;7.77;1.27;;;6.90;99.90;;;;;;5069512;23;20184;-92
2024/02/12 07:37:51;;;;;;;3.33;1.23;;;6.90;99.90;;;;;;5069232;23;20200;-92
2024/02/12 07:39:52;;;;;;;8.15;0.90;;;6.90;99.90;;;;;;5045089;23;20202;-93
2024/02/12 07:41:54;;;;;;;5.65;0.80;;;7.00;99.90;;;;;;5070221;23;20154;-93
2024/02/12 07:43:59;;;;;;;9.40;1.30;;;6.90;99.90;;;;;;5045350;23;20209;-94
2024/02/12 07:46:05;;;;;;;2.25;0.68;;;6.80;99.90;;;;;;5069692;23;20157;-92
2024/02/12 07:48:09;;;;;;;3.83;0.70;;;6.80;99.90;;;;;;5069805;23;20240;-92
2024/02/12 07:50:13;;;;;;;8.40;1.07;;;6.70;99.90;;;;;;5072013;23;20194;-93
2024/02/12 07:52:14;;;;;;;8.93;1.23;;;6.60;99.90;;;;;;5045522;23;20241;-95
2024/02/12 07:54:15;;;;;;;6.25;0.57;;;6.70;99.90;;;;;;5045340;23;20158;-94
2024/02/12 07:56:16;;;;;;;6.40;0.67;;;6.80;99.90;;;;;;5069936;23;20201;-92
2024/02/12 07:58:21;;;;;;;1.30;0.65;;;6.90;99.90;;;;;;5093735;23;20524;-94
2024/02/12 08:00:23;;;;;;;10.07;1.38;;;7.10;99.90;;;;;;5093665;23;20165;-94
2024/02/12 08:02:24;;;;;;;5.93;0.60;;;7.20;99.90;;;;;;5070580;23;20215;-93
2024/02/12 08:04:25;;;;;;;3.95;1.00;;;7.20;99.90;;;;;;5045583;23;20158;-93
2024/02/12 08:06:29;;;;;;;1.55;0.70;;;7.40;99.90;;;;;;5070627;23;20501;-94
2024/02/12 08:08:33;;;;;;;5.30;1.38;;;7.40;99.90;;;;;;5069259;23;20668;-94
2024/02/12 08:10:37;;;;;;;3.75;0.73;;;7.40;99.90;;;;;;5093780;23;20185;-94
2024/02/12 08:12:40;;;;;;;4.32;0.70;;;7.40;99.90;;;;;;5069096;23;20161;-92
2024/02/12 08:14:42;;;;;;;7.03;1.05;;;7.30;99.90;;;;;;5093534;23;20153;-94
2024/02/12 08:16:53;;;;;;;1.90;0.95;;;7.20;99.90;;;;;;5069202;23;20169;-94
2024/02/12 08:18:54;;;;;;;11.13;1.27;;;7.20;99.90;;;;;;5069313;23;20476;-94
2024/02/12 08:20:56;;;;;;;12.10;0.70;;;7.20;99.90;;;;;;5069321;23;20161;-92
2024/02/12 08:22:58;;;;;;;1.05;0.30;;;7.30;99.90;;;;;;5045688;23;20182;-93
2024/02/12 08:24:59;;;;;;;17.60;1.55;;;7.40;99.90;;;;;;5045690;23;20487;-92
2024/02/12 08:27:00;;;;;;;5.90;2.17;;;7.70;99.90;;;;;;5044940;23;20213;-94
2024/02/12 08:29:02;;;;;;;4.50;0.70;;;8.40;99.90;;;;;;5045278;23;20151;-93
2024/02/12 08:31:03;;;;;;;9.93;1.10;;;8.80;99.90;;;;;;5069700;23;20248;-93
2024/02/12 08:33:08;;;;;;;3.20;0.73;;;9.40;99.90;;;;;;5045640;23;20241;-93
2024/02/12 08:35:09;;;;;;;4.68;1.10;;;9.90;99.90;;;;;;5045755;23;20154;-93
2024/02/12 08:37:10;;;;;;;3.88;1.02;;;9.50;99.90;;;;;;5068817;23;20158;-93
2024/02/12 08:39:13;;;;;;;5.70;1.20;;;9.70;99.90;;;;;;5044634;23;20154;-93
2024/02/12 08:41:24;;;;;;;3.50;0.60;;;9.70;99.90;;;;;;5046890;23;20162;-92
2024/02/12 08:43:25;;;;;;;8.05;1.02;;;9.30;99.90;;;;;;5045138;23;20161;-92
2024/02/12 08:45:26;;;;;;;6.40;0.90;;;9.10;99.90;;;;;;5044976;23;20652;-92
2024/02/12 08:47:29;;;;;;;5.15;0.85;;;9.10;99.90;;;;;;5044593;23;20174;-93
2024/02/12 08:49:30;;;;;;;16.02;1.48;;;9.10;99.90;;;;;;5044972;23;20158;-95
2024/02/12 08:51:32;;;;;;;4.13;1.23;;;8.80;99.90;;;;;;5070610;23;20486;-93
2024/02/12 08:53:33;;;;;;;7.63;0.95;;;8.40;99.90;;;;;;5044990;23;20162;-92
2024/02/12 08:55:34;;;;;;;7.25;1.30;;;8.30;99.90;;;;;;5044308;23;20592;-95
2024/02/12 08:57:35;;;;;;;2.83;0.90;;;8.60;99.90;;;;;;5069184;23;20174;-93
2024/02/12 08:59:37;;;;;;;10.80;1.30;;;9.20;99.90;;;;;;5068692;23;20150;-94
2024/02/12 09:01:38;;;;;;;5.03;1.25;;;9.30;99.90;;;;;;5048528;23;20198;-92
2024/02/12 09:03:42;;;;;;;3.13;0.80;;;9.20;99.90;;;;;;5073224;23;20599;-91
2024/02/12 09:05:44;;;;;;;2.05;0.88;;;9.40;99.90;;;;;;5061883;23;20138;-94
2024/02/12 09:07:46;;;;;;;6.78;1.58;;;9.60;99.90;;;;;;5063266;23;20206;-93
2024/02/12 09:09:50;;;;;;;4.43;1.20;;;9.50;99.90;;;;;;5045061;23;20154;-92
2024/02/12 09:11:51;;;;;;;1.27;0.50;;;9.40;99.90;;;;;;5045290;23;20174;-93
2024/02/12 09:14:03;;;;;;;3.45;0.77;;;9.50;99.90;;;;;;5069524;23;20157;-93
2024/02/12 09:16:05;;;;;;;5.40;0.82;;;9.50;99.90;;;;;;5068994;23;20196;-92
2024/02/12 09:18:11;;;;;;;2.33;0.65;;;9.60;99.90;;;;;;5070105;23;20178;-94
2024/02/12 09:20:14;;;;;;;0.50;0.30;;;9.50;99.90;;;;;;5044605;23;20598;-93
2024/02/12 09:22:16;;;;;;;2.63;0.80;;;9.70;99.90;;;;;;5069837;23;20220;-95
2024/02/12 09:24:22;;;;;;;3.17;1.00;;;9.80;99.90;;;;;;5069794;23;20232;-93
2024/02/12 09:26:24;;;;;;;2.25;0.77;;;10.10;99.90;;;;;;5045511;23;20169;-92
2024/02/12 09:28:38;;;;;;;1.27;0.43;;;10.10;99.90;;;;;;5069208;23;20193;-93
2024/02/12 09:30:39;;;;;;;4.13;1.25;;;10.20;99.90;;;;;;5069490;23;20755;-93
2024/02/12 09:32:56;;;;;;;1.98;0.68;;;10.00;99.90;;;;;;5069143;23;20181;-92
2024/02/12 09:35:04;;;;;;;10.10;0.80;;;9.80;99.90;;;;;;5069529;23;20154;-94
2024/02/12 09:37:05;;;;;;;2.53;0.75;;;9.60;99.90;;;;;;5044490;23;20509;-93
2024/02/12 09:39:07;;;;;;;4.45;1.67;;;9.30;99.90;;;;;;5044945;23;20580;-92
2024/02/12 09:41:15;;;;;;;2.78;0.82;;;9.10;99.90;;;;;;5070729;23;20154;-94
2024/02/12 09:43:23;;;;;;;12.23;1.63;;;9.20;99.90;;;;;;5071818;23;20188;-93
2024/02/12 09:45:31;;;;;;;2.80;0.70;;;9.20;99.90;;;;;;5069984;23;20266;-93
2024/02/12 09:47:35;;;;;;;4.15;1.30;;;9.00;99.90;;;;;;5068974;23;20612;-93
2024/02/12 09:49:48;;;;;;;2.83;1.10;;;9.10;99.90;;;;;;5069144;23;20177;-93
2024/02/12 09:51:51;;;;;;;5.25;0.93;;;9.10;99.90;;;;;;5046254;23;20217;-93
2024/02/12 09:53:55;;;;;;;2.22;0.70;;;9.20;99.90;;;;;;5070259;23;20208;-93
2024/02/12 09:55:56;;;;;;;3.13;1.45;;;9.10;99.90;;;;;;5071919;23;20492;-95
2024/02/12 09:58:00;;;;;;;3.85;1.30;;;9.00;99.90;;;;;;5047501;23;20688;-94
2024/02/12 10:00:07;;;;;;;8.20;0.95;;;9.00;99.90;;;;;;5070900;23;20165;-93
2024/02/12 10:02:25;;;;;;;3.33;1.00;;;9.00;99.90;;;;;;5046334;23;20157;-93
2024/02/12 10:04:37;;;;;;;1.20;0.90;;;9.10;99.90;;;;;;5046334;23;20181;-93
2024/02/12 10:06:38;;;;;;;3.30;1.00;;;9.00;99.90;;;;;;5070029;23;20153;-92
2024/02/12 10:08:39;;;;;;;1.05;0.40;;;9.00;99.90;;;;;;5070354;23;20178;-94
2024/02/12 10:10:40;;;;;;;9.45;1.35;;;9.20;99.90;;;;;;5093949;23;20279;-92
2024/02/12 10:12:41;;;;;;;2.08;0.63;;;9.30;99.90;;;;;;5069604;23;20162;-93
2024/02/12 10:14:45;;;;;;;11.30;1.50;;;9.50;99.90;;;;;;5070976;23;20162;-93
2024/02/12 10:16:46;;;;;;;5.60;1.58;;;9.70;99.90;;;;;;5069848;23;20196;-92
2024/02/12 10:18:47;;;;;;;1.58;0.77;;;9.90;99.90;;;;;;5046199;23;20178;-92
2024/02/12 10:20:53;;;;;;;3.65;1.27;;;10.30;99.90;;;;;;5070101;23;20726;-95
2024/02/12 10:22:57;;;;;;;4.05;0.90;;;10.10;99.90;;;;;;5070051;23;20158;-93
2024/02/12 10:24:58;;;;;;;5.65;0.63;;;9.80;99.90;;;;;;5069793;23;20671;-90
2024/02/12 10:27:02;;;;;;;2.53;1.00;;;9.50;99.90;;;;;;5046142;23;20609;-92
2024/02/12 10:29:06;;;;;;;8.70;0.85;;;9.40;99.90;;;;;;5095433;23;20244;-93
2024/02/12 10:31:09;;;;;;;4.78;1.27;;;9.50;99.90;;;;;;5045584;23;20760;-94
2024/02/12 10:33:15;;;;;;;3.70;1.33;;;9.50;99.90;;;;;;5070808;23;20186;-94
2024/02/12 10:35:23;;;;;;;3.92;0.88;;;9.50;99.90;;;;;;5070501;23;20246;-93
2024/02/12 10:37:31;;;;;;;8.65;1.67;;;9.50;99.90;;;;;;5069350;23;20178;-93
2024/02/12 10:39:32;;;;;;;7.65;1.02;;;9.60;99.90;;;;;;5045867;23;20195;-93
2024/02/12 10:41:37;;;;;;;10.90;1.90;;;9.70;99.90;;;;;;5045348;23;20166;-93
2024/02/12 10:43:43;;;;;;;6.78;1.20;;;10.10;99.90;;;;;;5070169;23;20160;-92
2024/02/12 10:45:48;;;;;;;2.33;0.90;;;10.40;99.90;;;;;;5093981;23;20152;-93
2024/02/12 10:47:51;;;;;;;2.08;0.90;;;10.50;99.90;;;;;;5070563;23;20201;-93
2024/02/12 10:49:54;;;;;;;2.22;0.80;;;10.50;99.90;;;;;;5070030;23;20153;-92
2024/02/12 10:51:57;;;;;;;4.05;1.33;;;10.40;99.90;;;;;;5045908;23;20170;-92
2024/02/12 10:53:59;;;;;;;1.58;0.95;;;10.20;99.90;;;;;;5071635;23;20512;-93
2024/02/12 10:56:02;;;;;;;3.13;1.08;;;10.10;99.90;;;;;;5070589;23;20164;-93
2024/02/12 10:58:06;;;;;;;3.58;1.25;;;10.20;99.90;;;;;;5070586;23;20240;-93
2024/02/12 11:00:25;;;;;;;4.78;1.35;;;10.10;99.90;;;;;;5070862;23;20165;-92